Time;durP1;ratioP1;P1;durP2;ratioP2;P2;SDS_P1;SDS_P2;PMS_P1;PMS_P2;Temp;Humidity;BMP_temperature;BMP_pressure;BME280_temperature;BME280_humidity;BME280_pressure;Samples;Min_cycle;Max_cycle;Signal;HPM_P1;HPM_P2
2023/02/04 00:02:03;;;;;;;2.80;2.20;;;6.80;99.90;;;;;;5089727;28;20203;-71
2023/02/04 00:04:30;;;;;;;3.28;2.38;;;6.80;99.90;;;;;;5088910;28;20233;-71
2023/02/04 00:06:56;;;;;;;2.75;2.13;;;6.70;99.90;;;;;;5090238;28;20228;-71
2023/02/04 00:09:23;;;;;;;3.85;2.58;;;6.70;99.90;;;;;;5089302;28;20681;-71
2023/02/04 00:11:52;;;;;;;2.45;1.77;;;6.80;99.90;;;;;;5089710;28;20215;-71
2023/02/04 00:14:18;;;;;;;1.80;1.60;;;6.80;99.90;;;;;;5089992;28;20199;-71
2023/02/04 00:16:45;;;;;;;2.80;2.20;;;6.70;99.90;;;;;;5090360;28;20778;-71
2023/02/04 00:19:12;;;;;;;3.15;2.35;;;6.70;99.90;;;;;;5088981;28;20674;-71
2023/02/04 00:21:39;;;;;;;2.10;1.95;;;6.70;99.90;;;;;;5089479;28;20252;-71
2023/02/04 00:24:06;;;;;;;2.72;1.80;;;6.70;99.90;;;;;;5089981;28;20200;-71
2023/02/04 00:26:34;;;;;;;1.50;1.40;;;6.70;99.90;;;;;;5069828;28;20311;-71
2023/02/04 00:29:03;;;;;;;1.85;1.67;;;6.70;99.90;;;;;;5069266;28;20277;-71
2023/02/04 00:31:31;;;;;;;2.05;1.75;;;6.60;99.90;;;;;;5069141;28;20311;-71
2023/02/04 00:33:58;;;;;;;2.28;2.08;;;6.70;99.90;;;;;;5088155;28;20287;-71
2023/02/04 00:36:26;;;;;;;2.90;2.10;;;6.70;99.90;;;;;;5089686;28;20827;-71
2023/02/04 00:38:53;;;;;;;1.70;1.60;;;6.60;99.90;;;;;;5089550;28;20290;-71
2023/02/04 00:41:20;;;;;;;1.33;1.23;;;6.70;99.90;;;;;;5089813;28;20221;-68
2023/02/04 00:43:46;;;;;;;2.40;1.70;;;6.70;99.90;;;;;;5087518;28;20203;-69
2023/02/04 00:46:14;;;;;;;2.05;1.85;;;6.70;99.90;;;;;;5089275;28;20223;-69
2023/02/04 00:48:41;;;;;;;1.83;1.65;;;6.70;99.90;;;;;;5088004;28;20196;-69
2023/02/04 00:51:08;;;;;;;1.83;1.50;;;6.80;99.90;;;;;;5089189;28;20224;-69
2023/02/04 00:53:34;;;;;;;1.50;1.38;;;6.80;99.90;;;;;;5088991;28;20199;-70
2023/02/04 00:56:01;;;;;;;2.10;1.75;;;6.80;99.90;;;;;;5076393;28;20227;-69
2023/02/04 00:58:28;;;;;;;1.50;1.40;;;6.70;99.90;;;;;;5067465;28;20200;-69
2023/02/04 01:00:54;;;;;;;3.78;2.15;;;6.70;99.90;;;;;;5069183;28;20200;-70
2023/02/04 01:03:22;;;;;;;1.90;1.70;;;6.70;99.90;;;;;;5068877;28;20611;-69
2023/02/04 01:05:49;;;;;;;2.10;1.80;;;6.70;99.90;;;;;;5069222;28;20224;-69
2023/02/04 01:08:16;;;;;;;2.30;1.88;;;6.80;99.90;;;;;;5069195;28;20204;-69
2023/02/04 01:10:43;;;;;;;3.33;1.75;;;6.80;99.90;;;;;;5068735;28;20283;-69
2023/02/04 01:13:10;;;;;;;1.85;1.75;;;6.80;99.90;;;;;;5068820;28;20200;-69
2023/02/04 01:15:37;;;;;;;2.35;2.05;;;6.70;99.90;;;;;;5068454;28;20232;-69
2023/02/04 01:18:03;;;;;;;2.00;1.65;;;6.70;99.90;;;;;;5068497;28;20224;-69
2023/02/04 01:20:31;;;;;;;2.30;2.10;;;6.80;99.90;;;;;;5067319;28;20212;-70
2023/02/04 01:22:58;;;;;;;2.25;1.63;;;6.70;99.90;;;;;;5068355;28;20204;-70
2023/02/04 01:25:25;;;;;;;2.95;1.63;;;6.70;99.90;;;;;;5068103;28;20573;-70
2023/02/04 01:27:52;;;;;;;1.65;1.55;;;6.80;99.90;;;;;;5068342;28;20390;-70
2023/02/04 01:30:18;;;;;;;2.00;1.80;;;6.80;99.90;;;;;;5067854;28;20213;-70
2023/02/04 01:32:45;;;;;;;1.73;1.50;;;6.80;99.90;;;;;;5068259;28;20227;-69
2023/02/04 01:35:12;;;;;;;1.40;1.30;;;6.80;99.90;;;;;;5068275;28;20587;-69
2023/02/04 01:37:40;;;;;;;1.90;1.58;;;6.70;99.90;;;;;;5067878;28;20682;-70
2023/02/04 01:40:08;;;;;;;4.20;1.60;;;6.70;99.90;;;;;;5068777;28;20204;-70
2023/02/04 01:42:34;;;;;;;1.55;1.40;;;6.60;99.90;;;;;;5071465;28;20200;-69
2023/02/04 01:45:01;;;;;;;1.98;1.50;;;6.60;99.90;;;;;;5091721;28;20580;-69
2023/02/04 01:47:28;;;;;;;1.58;1.48;;;6.60;99.90;;;;;;5091040;28;20219;-69
2023/02/04 01:49:55;;;;;;;1.40;1.30;;;6.50;99.90;;;;;;5091049;28;20570;-69
2023/02/04 01:52:23;;;;;;;1.95;1.58;;;6.50;99.90;;;;;;5091184;28;20226;-69
2023/02/04 01:54:52;;;;;;;1.40;1.20;;;6.50;99.90;;;;;;5091193;28;20210;-70
2023/02/04 01:57:19;;;;;;;1.65;1.10;;;6.40;99.90;;;;;;5091190;28;20227;-68
2023/02/04 01:59:47;;;;;;;1.08;0.98;;;6.40;99.90;;;;;;5090447;28;20606;-70
2023/02/04 02:02:40;;;;;;;1.75;1.20;;;6.30;99.90;;;;;;5090997;28;20286;-69
2023/02/04 02:05:08;;;;;;;1.95;1.15;;;6.30;99.90;;;;;;5090760;28;20235;-69
2023/02/04 02:07:35;;;;;;;1.40;1.00;;;6.20;99.90;;;;;;5090582;28;20221;-69
2023/02/04 02:10:04;;;;;;;1.15;1.05;;;6.20;99.90;;;;;;5089990;28;20200;-70
2023/02/04 02:12:30;;;;;;;2.75;1.20;;;6.10;99.90;;;;;;5090618;28;20243;-69
2023/02/04 02:14:58;;;;;;;2.15;1.30;;;6.00;99.90;;;;;;5090839;28;20207;-69
2023/02/04 02:17:25;;;;;;;1.27;1.00;;;6.00;99.90;;;;;;5090565;28;20233;-69
2023/02/04 02:19:52;;;;;;;1.42;1.00;;;6.00;99.90;;;;;;5090081;28;20207;-69
2023/02/04 02:22:25;;;;;;;1.23;1.02;;;5.90;99.90;;;;;;5090590;28;20191;-69
2023/02/04 02:24:53;;;;;;;1.92;1.25;;;5.90;99.90;;;;;;5090641;28;20206;-69
2023/02/04 02:27:20;;;;;;;2.10;1.05;;;5.90;99.90;;;;;;5090761;28;20226;-69
2023/02/04 02:29:47;;;;;;;1.90;1.08;;;5.80;99.90;;;;;;5090065;28;20200;-70
2023/02/04 02:32:15;;;;;;;1.83;1.20;;;5.80;99.90;;;;;;5090404;28;20215;-70
2023/02/04 02:34:43;;;;;;;3.63;1.35;;;5.80;99.90;;;;;;5090418;28;20310;-70
2023/02/04 02:37:10;;;;;;;1.50;1.00;;;5.80;99.90;;;;;;5090685;28;20231;-70
2023/02/04 02:39:38;;;;;;;1.63;0.98;;;5.80;99.90;;;;;;5087432;28;20200;-70
2023/02/04 02:42:06;;;;;;;2.55;0.90;;;5.80;99.90;;;;;;5090708;28;20195;-70
2023/02/04 02:44:33;;;;;;;3.30;1.50;;;5.70;99.90;;;;;;5090402;28;20211;-70
2023/02/04 02:47:01;;;;;;;1.20;0.80;;;5.80;99.90;;;;;;5090609;28;20607;-70
2023/02/04 02:49:30;;;;;;;1.42;1.00;;;5.80;99.90;;;;;;5089811;28;20210;-72
2023/02/04 02:51:56;;;;;;;2.17;0.90;;;5.80;99.90;;;;;;5090550;28;20223;-69
2023/02/04 02:54:26;;;;;;;0.88;0.80;;;5.70;99.90;;;;;;5090444;28;20200;-69
2023/02/04 02:56:54;;;;;;;2.75;0.90;;;5.70;99.90;;;;;;5090517;28;20230;-70
2023/02/04 02:59:22;;;;;;;1.40;1.20;;;5.70;99.90;;;;;;5089974;28;20206;-70
2023/02/04 03:01:51;;;;;;;2.88;1.30;;;5.70;99.90;;;;;;5090178;28;20567;-70
2023/02/04 03:04:20;;;;;;;6.47;1.50;;;5.70;99.90;;;;;;5090471;28;20613;-70
2023/02/04 03:06:46;;;;;;;2.22;1.05;;;5.70;99.90;;;;;;5090730;28;20230;-70
2023/02/04 03:09:13;;;;;;;1.90;1.25;;;5.60;99.90;;;;;;5089882;28;20687;-70
2023/02/04 03:11:40;;;;;;;2.97;1.65;;;5.70;99.90;;;;;;5090098;28;20223;-70
2023/02/04 03:14:07;;;;;;;1.73;1.38;;;5.60;99.90;;;;;;5090397;28;20204;-70
2023/02/04 03:16:36;;;;;;;2.75;1.60;;;5.60;99.90;;;;;;5089953;28;20702;-70
2023/02/04 03:19:06;;;;;;;1.30;1.17;;;5.60;99.90;;;;;;5089896;28;20211;-70
2023/02/04 03:21:32;;;;;;;1.67;1.20;;;5.60;99.90;;;;;;5092851;28;20211;-70
2023/02/04 03:23:59;;;;;;;2.78;1.60;;;5.60;99.90;;;;;;5094145;28;20211;-70
2023/02/04 03:26:26;;;;;;;2.25;1.13;;;5.60;99.90;;;;;;5093849;28;20249;-70
2023/02/04 03:28:53;;;;;;;2.75;1.30;;;5.60;99.90;;;;;;5093659;28;20207;-70
2023/02/04 03:31:20;;;;;;;1.90;1.60;;;5.60;99.90;;;;;;5093931;28;20211;-70
2023/02/04 03:33:48;;;;;;;2.75;1.60;;;5.60;99.90;;;;;;5093847;28;20223;-70
2023/02/04 03:36:15;;;;;;;1.70;1.45;;;5.60;99.90;;;;;;5093733;28;20220;-70
2023/02/04 03:38:42;;;;;;;1.55;1.10;;;5.60;99.90;;;;;;5093157;28;20261;-70
2023/02/04 03:41:08;;;;;;;1.75;1.35;;;5.60;99.90;;;;;;5093806;28;20200;-70
2023/02/04 03:43:35;;;;;;;4.40;1.90;;;5.60;99.90;;;;;;5093514;28;20196;-70
2023/02/04 03:46:02;;;;;;;1.40;1.23;;;5.70;99.90;;;;;;5093729;28;20231;-70
2023/02/04 03:48:29;;;;;;;1.20;1.00;;;5.70;99.90;;;;;;5093035;28;20200;-70
2023/02/04 03:50:57;;;;;;;2.13;1.52;;;5.70;99.90;;;;;;5093808;28;20203;-70
2023/02/04 03:53:23;;;;;;;1.30;1.20;;;5.70;99.90;;;;;;5093325;28;20219;-70
2023/02/04 03:55:50;;;;;;;2.17;1.40;;;5.60;99.90;;;;;;5093612;28;20633;-70
2023/02/04 03:58:17;;;;;;;1.40;1.30;;;5.60;99.90;;;;;;5093306;28;20195;-71
2023/02/04 04:00:44;;;;;;;2.00;1.50;;;5.60;99.90;;;;;;5093118;28;20206;-70
2023/02/04 04:03:10;;;;;;;1.98;1.55;;;5.60;99.90;;;;;;5093520;28;20577;-70
2023/02/04 04:05:37;;;;;;;2.45;1.58;;;5.50;99.90;;;;;;5093026;28;20227;-70
2023/02/04 04:08:05;;;;;;;5.95;1.85;;;5.50;99.90;;;;;;5093655;28;20203;-69
2023/02/04 04:10:32;;;;;;;1.50;1.40;;;5.50;99.90;;;;;;5092724;28;20211;-69
2023/02/04 04:12:59;;;;;;;1.73;1.38;;;5.50;99.90;;;;;;5093234;28;20591;-70
2023/02/04 04:15:25;;;;;;;1.85;1.27;;;5.50;99.90;;;;;;5092874;28;20220;-70
2023/02/04 04:17:52;;;;;;;1.92;1.42;;;5.50;99.90;;;;;;5073914;28;20197;-70
2023/02/04 04:20:19;;;;;;;2.13;1.83;;;5.60;99.90;;;;;;5072579;28;20675;-69
2023/02/04 04:22:45;;;;;;;1.73;1.48;;;5.60;99.90;;;;;;5072704;28;20204;-70
2023/02/04 04:25:13;;;;;;;2.72;1.52;;;5.60;99.90;;;;;;5072778;28;20197;-69
2023/02/04 04:27:40;;;;;;;4.03;1.67;;;5.60;99.90;;;;;;5072635;28;20553;-70
2023/02/04 04:30:08;;;;;;;1.33;1.23;;;5.60;99.90;;;;;;5072206;28;20211;-70
2023/02/04 04:32:34;;;;;;;1.60;1.23;;;5.60;99.90;;;;;;5071833;28;20232;-70
2023/02/04 04:35:01;;;;;;;1.85;1.48;;;5.60;99.90;;;;;;5072800;28;20527;-69
2023/02/04 04:37:28;;;;;;;3.38;1.73;;;5.60;99.90;;;;;;5072325;28;20217;-70
2023/02/04 04:39:54;;;;;;;1.40;1.30;;;5.70;99.90;;;;;;5072403;28;20197;-70
2023/02/04 04:42:22;;;;;;;2.30;1.90;;;5.60;99.90;;;;;;5072355;28;20207;-69
2023/02/04 04:44:49;;;;;;;2.55;1.40;;;5.60;99.90;;;;;;5072221;28;20565;-70
2023/02/04 04:47:16;;;;;;;1.30;1.20;;;5.60;99.90;;;;;;5072327;28;20221;-70
2023/02/04 04:49:42;;;;;;;7.18;1.67;;;5.60;99.90;;;;;;5071553;28;20315;-69
2023/02/04 04:52:09;;;;;;;3.35;1.77;;;5.70;99.90;;;;;;5072288;28;20200;-69
2023/02/04 04:54:36;;;;;;;3.22;1.92;;;5.70;99.90;;;;;;5072049;28;20200;-71
2023/02/04 04:57:03;;;;;;;3.80;2.05;;;5.70;99.90;;;;;;5072047;28;20236;-70
2023/02/04 04:59:31;;;;;;;3.40;1.80;;;5.70;99.90;;;;;;5071246;28;20620;-69
2023/02/04 05:01:58;;;;;;;2.08;1.88;;;5.70;99.90;;;;;;5072056;28;20208;-70
2023/02/04 05:04:24;;;;;;;4.35;1.95;;;5.60;99.90;;;;;;5071776;28;20207;-70
2023/02/04 05:06:51;;;;;;;2.00;1.85;;;5.60;99.90;;;;;;5071901;28;20220;-69
2023/02/04 05:09:18;;;;;;;4.40;2.30;;;5.70;99.90;;;;;;5071505;28;20605;-70
2023/02/04 05:11:45;;;;;;;3.67;1.85;;;5.70;99.90;;;;;;5072087;28;20204;-70
2023/02/04 05:14:12;;;;;;;4.60;2.40;;;5.70;99.90;;;;;;5071840;28;20230;-70
2023/02/04 05:16:40;;;;;;;2.20;1.90;;;5.60;99.90;;;;;;5071423;28;20227;-70
2023/02/04 05:19:07;;;;;;;3.67;2.50;;;5.60;99.90;;;;;;5071211;28;20203;-70
2023/02/04 05:21:33;;;;;;;2.20;1.85;;;5.60;99.90;;;;;;5071296;28;20219;-70
2023/02/04 05:24:00;;;;;;;3.30;2.00;;;5.60;99.90;;;;;;5071631;28;20192;-70
2023/02/04 05:26:27;;;;;;;4.95;2.13;;;5.60;99.90;;;;;;5071302;28;20727;-70
2023/02/04 05:28:53;;;;;;;3.85;1.85;;;5.50;99.90;;;;;;5070894;28;20200;-70
2023/02/04 05:31:20;;;;;;;2.65;2.13;;;5.50;99.90;;;;;;5071442;28;20204;-69
2023/02/04 05:33:48;;;;;;;4.90;2.30;;;5.50;99.90;;;;;;5071276;28;20216;-69
2023/02/04 05:36:16;;;;;;;2.20;2.00;;;5.50;99.90;;;;;;5071411;28;20236;-70
2023/02/04 05:38:43;;;;;;;2.20;2.00;;;5.60;99.90;;;;;;5070525;28;20205;-70
2023/02/04 05:41:10;;;;;;;6.97;2.00;;;5.60;99.90;;;;;;5071317;28;20278;-70
2023/02/04 05:43:36;;;;;;;2.40;2.20;;;5.60;99.90;;;;;;5070120;28;20192;-70
2023/02/04 05:46:03;;;;;;;1.73;1.63;;;5.50;99.90;;;;;;5071063;28;20220;-69
2023/02/04 05:48:30;;;;;;;2.00;1.77;;;5.50;99.90;;;;;;5070469;28;20196;-69
2023/02/04 05:50:58;;;;;;;3.25;2.00;;;5.50;99.90;;;;;;5071255;28;20209;-69
2023/02/04 05:53:24;;;;;;;2.47;1.95;;;5.50;99.90;;;;;;5070849;28;20220;-69
2023/02/04 05:55:51;;;;;;;4.25;2.28;;;5.50;99.90;;;;;;5071054;28;20220;-70
2023/02/04 05:58:18;;;;;;;4.55;2.70;;;5.50;99.90;;;;;;5070284;28;20207;-70
2023/02/04 06:00:45;;;;;;;2.70;2.50;;;5.60;99.90;;;;;;5070833;28;20595;-70
2023/02/04 06:03:13;;;;;;;4.18;2.10;;;5.60;99.90;;;;;;5071180;28;20210;-69
2023/02/04 06:05:40;;;;;;;4.60;2.05;;;5.50;99.90;;;;;;5070817;28;20892;-69
2023/02/04 06:08:09;;;;;;;3.35;2.55;;;5.50;99.90;;;;;;5070924;28;20204;-69
2023/02/04 06:10:36;;;;;;;4.90;2.50;;;5.50;99.90;;;;;;5070682;28;20687;-69
2023/02/04 06:13:03;;;;;;;3.35;2.92;;;5.40;99.90;;;;;;5070833;28;20227;-69
2023/02/04 06:15:29;;;;;;;4.15;2.83;;;5.40;99.90;;;;;;5070508;28;20223;-69
2023/02/04 06:17:57;;;;;;;4.63;3.03;;;5.40;99.90;;;;;;5070830;28;20196;-69
2023/02/04 06:20:23;;;;;;;2.45;1.90;;;5.40;99.90;;;;;;5069906;28;20671;-69
2023/02/04 06:22:52;;;;;;;8.45;2.55;;;5.40;99.90;;;;;;5070899;28;20207;-69
2023/02/04 06:25:20;;;;;;;4.68;2.58;;;5.40;99.90;;;;;;5070676;28;20211;-69
2023/02/04 06:27:47;;;;;;;4.90;2.50;;;5.30;99.90;;;;;;5070471;28;20204;-69
2023/02/04 06:30:14;;;;;;;2.13;1.90;;;5.30;99.90;;;;;;5069973;28;20208;-69
2023/02/04 06:32:41;;;;;;;3.72;2.20;;;5.30;99.90;;;;;;5070084;28;20204;-69
2023/02/04 06:35:08;;;;;;;2.95;2.55;;;5.30;99.90;;;;;;5070538;28;20223;-70
2023/02/04 06:37:35;;;;;;;4.32;2.10;;;5.30;99.90;;;;;;5070280;28;20208;-69
2023/02/04 06:40:02;;;;;;;2.72;2.50;;;5.30;99.90;;;;;;5070053;28;20200;-69
2023/02/04 06:42:30;;;;;;;3.72;2.20;;;5.30;99.90;;;;;;5081219;28;20192;-69
2023/02/04 06:44:57;;;;;;;7.95;3.05;;;5.20;99.90;;;;;;5090224;28;20199;-69
2023/02/04 06:47:23;;;;;;;4.97;2.83;;;5.20;99.90;;;;;;5090438;28;20226;-69
2023/02/04 06:49:50;;;;;;;3.85;2.28;;;5.20;99.90;;;;;;5089854;28;20203;-69
2023/02/04 06:52:17;;;;;;;5.80;2.90;;;5.30;99.90;;;;;;5090433;28;20203;-70
2023/02/04 06:54:43;;;;;;;6.22;2.92;;;5.30;99.90;;;;;;5091598;28;20219;-70
2023/02/04 06:57:11;;;;;;;2.53;2.30;;;5.20;99.90;;;;;;5094452;28;20224;-69
2023/02/04 06:59:41;;;;;;;6.97;2.55;;;5.30;99.90;;;;;;5093602;28;20196;-69
2023/02/04 07:02:10;;;;;;;4.25;3.55;;;5.20;99.90;;;;;;5094171;28;20610;-69
2023/02/04 07:04:37;;;;;;;5.45;3.22;;;5.20;99.90;;;;;;5091456;28;20284;-68
2023/02/04 07:07:04;;;;;;;4.28;2.50;;;5.10;99.90;;;;;;5093966;28;20215;-69
2023/02/04 07:09:31;;;;;;;6.93;2.85;;;5.10;99.90;;;;;;5093116;28;20565;-69
2023/02/04 07:11:57;;;;;;;3.95;2.70;;;5.10;99.90;;;;;;5093344;28;20200;-69
2023/02/04 07:14:24;;;;;;;4.72;3.10;;;5.10;99.90;;;;;;5093717;28;20212;-69
2023/02/04 07:16:52;;;;;;;3.65;3.08;;;5.10;99.90;;;;;;5093942;28;20220;-69
2023/02/04 07:19:19;;;;;;;3.90;3.10;;;5.20;99.90;;;;;;5093651;28;20397;-69
2023/02/04 07:21:46;;;;;;;3.53;2.70;;;5.20;99.90;;;;;;5094185;28;20219;-69
2023/02/04 07:24:13;;;;;;;3.97;2.80;;;5.20;99.90;;;;;;5094402;28;20195;-69
2023/02/04 07:26:39;;;;;;;6.15;2.85;;;5.20;99.90;;;;;;5093613;28;20232;-69
2023/02/04 07:29:06;;;;;;;6.45;3.55;;;5.30;99.90;;;;;;5093279;28;20215;-69
2023/02/04 07:31:33;;;;;;;8.18;2.90;;;5.30;99.90;;;;;;5093654;28;20613;-69
2023/02/04 07:34:01;;;;;;;4.00;3.00;;;5.30;99.90;;;;;;5093799;28;20220;-69
2023/02/04 07:36:27;;;;;;;3.05;2.58;;;5.30;99.90;;;;;;5093691;28;20226;-69
2023/02/04 07:38:54;;;;;;;3.90;3.17;;;5.30;99.90;;;;;;5093360;28;20208;-69
2023/02/04 07:41:21;;;;;;;13.82;4.22;;;5.30;99.90;;;;;;5093594;28;20223;-69
2023/02/04 07:43:47;;;;;;;3.47;2.40;;;5.30;99.90;;;;;;5093453;28;20203;-68
2023/02/04 07:46:14;;;;;;;6.20;2.95;;;5.30;99.90;;;;;;5093152;28;20733;-68
2023/02/04 07:48:41;;;;;;;3.05;2.50;;;5.30;99.90;;;;;;5092669;28;20297;-68
2023/02/04 07:51:09;;;;;;;5.60;3.20;;;5.30;99.90;;;;;;5079758;28;20213;-68
2023/02/04 07:53:36;;;;;;;7.05;3.35;;;5.30;99.90;;;;;;5071484;28;20271;-68
2023/02/04 07:56:02;;;;;;;3.15;2.30;;;5.30;99.90;;;;;;5072527;28;20231;-68
2023/02/04 07:58:29;;;;;;;6.53;2.97;;;5.30;99.90;;;;;;5071621;28;20200;-68
2023/02/04 08:00:56;;;;;;;9.13;3.55;;;5.30;99.90;;;;;;5071947;28;20212;-68
2023/02/04 08:03:23;;;;;;;9.48;3.35;;;5.30;99.90;;;;;;5072011;28;20201;-68
2023/02/04 08:05:49;;;;;;;6.50;3.28;;;5.30;99.90;;;;;;5070863;28;20247;-69
2023/02/04 08:08:17;;;;;;;5.10;3.03;;;5.30;99.90;;;;;;5073196;28;20200;-69
2023/02/04 08:10:44;;;;;;;5.60;2.80;;;5.40;99.90;;;;;;5080880;28;20207;-69
2023/02/04 08:13:12;;;;;;;3.67;3.00;;;5.30;99.90;;;;;;5089494;28;20694;-69
2023/02/04 08:15:39;;;;;;;4.95;2.85;;;5.40;99.90;;;;;;5092325;28;20214;-69
2023/02/04 08:18:06;;;;;;;6.95;3.35;;;5.40;99.90;;;;;;5091439;28;20191;-69
2023/02/04 08:20:33;;;;;;;5.40;2.85;;;5.50;99.90;;;;;;5091111;28;20208;-69
2023/02/04 08:22:59;;;;;;;6.97;3.03;;;5.50;99.90;;;;;;5092792;28;20204;-69
2023/02/04 08:25:28;;;;;;;8.02;3.83;;;5.40;99.90;;;;;;5092305;28;20615;-69
2023/02/04 08:27:55;;;;;;;15.18;8.45;;;5.50;99.90;;;;;;5093070;28;20235;-69
2023/02/04 08:30:22;;;;;;;8.50;6.75;;;5.50;99.90;;;;;;5091926;28;20204;-69
2023/02/04 08:32:48;;;;;;;7.95;4.28;;;5.60;99.90;;;;;;5092305;28;20207;-69
2023/02/04 08:35:16;;;;;;;7.70;3.90;;;5.80;99.90;;;;;;5088750;28;20255;-69
2023/02/04 08:37:43;;;;;;;10.80;3.47;;;5.80;99.90;;;;;;5091606;28;20928;-70
2023/02/04 08:40:11;;;;;;;5.65;3.35;;;5.80;99.90;;;;;;5090662;28;20295;-69
2023/02/04 08:42:39;;;;;;;6.10;3.05;;;5.80;99.90;;;;;;5091335;28;20204;-69
2023/02/04 08:45:06;;;;;;;3.13;2.80;;;5.90;99.90;;;;;;5075815;28;20197;-69
2023/02/04 08:47:33;;;;;;;5.63;3.80;;;6.00;99.90;;;;;;5071279;28;20207;-70
2023/02/04 08:49:59;;;;;;;5.15;2.85;;;6.20;99.90;;;;;;5069346;28;20196;-70
2023/02/04 08:52:26;;;;;;;7.53;2.83;;;6.50;99.90;;;;;;5077782;28;20207;-69
2023/02/04 08:54:53;;;;;;;3.65;3.22;;;7.10;99.90;;;;;;5090488;28;20231;-69
2023/02/04 08:57:20;;;;;;;9.90;2.88;;;8.40;99.90;;;;;;5090427;28;20580;-69
2023/02/04 08:59:48;;;;;;;7.00;3.05;;;9.80;99.90;;;;;;5077725;28;20204;-69
2023/02/04 09:02:15;;;;;;;2.35;2.15;;;10.80;99.90;;;;;;5070621;28;20747;-70
2023/02/04 09:04:41;;;;;;;3.15;2.40;;;11.70;99.90;;;;;;5070090;28;20210;-69
2023/02/04 09:07:08;;;;;;;5.10;2.53;;;13.50;99.90;;;;;;5070714;28;20225;-70
2023/02/04 09:09:35;;;;;;;8.75;2.50;;;15.40;99.90;;;;;;5069541;28;20209;-70
2023/02/04 09:12:02;;;;;;;6.03;2.73;;;16.80;99.90;;;;;;5070076;28;20262;-70
2023/02/04 09:14:29;;;;;;;6.20;2.38;;;17.00;99.90;;;;;;5089797;28;20480;-70
2023/02/04 09:16:57;;;;;;;3.80;2.67;;;16.90;99.90;;;;;;5090654;28;20272;-70
2023/02/04 09:19:24;;;;;;;4.03;2.17;;;16.50;99.90;;;;;;5081681;28;20462;-70
2023/02/04 09:21:52;;;;;;;4.30;1.97;;;16.40;99.90;;;;;;5070436;28;20506;-70
2023/02/04 09:24:19;;;;;;;7.53;2.20;;;16.50;99.90;;;;;;5069656;28;20458;-70
2023/02/04 09:26:45;;;;;;;6.10;2.90;;;17.80;99.90;;;;;;5069462;28;20500;-69
2023/02/04 09:29:12;;;;;;;6.10;2.30;;;19.40;99.90;;;;;;5069457;28;20467;-69
2023/02/04 09:31:39;;;;;;;3.70;1.80;;;20.80;99.40;;;;;;5069555;28;20470;-69
2023/02/04 09:34:08;;;;;;;3.80;1.70;;;22.10;95.40;;;;;;5070080;28;21092;-69
2023/02/04 09:36:36;;;;;;;3.30;2.00;;;22.70;95.80;;;;;;5069509;28;20862;-69
2023/02/04 09:39:04;;;;;;;4.57;2.07;;;23.00;94.80;;;;;;5069923;28;20919;-69
2023/02/04 09:41:31;;;;;;;3.27;2.27;;;23.20;94.50;;;;;;5069249;28;20466;-69
2023/02/04 09:43:59;;;;;;;2.13;1.80;;;23.30;94.30;;;;;;5069972;28;20461;-69
2023/02/04 09:46:28;;;;;;;5.00;1.90;;;24.60;92.20;;;;;;5069456;28;20483;-69
2023/02/04 09:48:56;;;;;;;3.37;2.10;;;25.10;91.30;;;;;;5068854;28;20543;-70
2023/02/04 09:51:27;;;;;;;5.73;1.97;;;26.50;90.00;;;;;;5069468;28;20466;-70
2023/02/04 09:54:01;;;;;;;2.77;1.57;;;26.20;88.50;;;;;;5069940;28;20891;-70
2023/02/04 09:56:28;;;;;;;5.10;2.20;;;25.60;88.10;;;;;;5068788;28;20485;-70
2023/02/04 09:58:54;;;;;;;4.60;1.80;;;25.60;86.00;;;;;;5069372;28;20463;-70
2023/02/04 10:01:21;;;;;;;4.90;2.00;;;25.20;86.80;;;;;;5068940;28;20473;-70
2023/02/04 10:03:50;;;;;;;2.90;1.73;;;23.20;85.80;;;;;;5069183;28;21081;-70
2023/02/04 10:06:19;;;;;;;3.50;1.83;;;20.70;89.10;;;;;;5069285;28;20928;-69
2023/02/04 10:08:49;;;;;;;4.00;2.17;;;18.00;91.70;;;;;;5068840;28;20462;-69
2023/02/04 10:11:18;;;;;;;3.60;2.17;;;15.70;93.80;;;;;;5068966;28;20462;-69
2023/02/04 10:13:49;;;;;;;2.77;1.93;;;13.90;96.40;;;;;;5068710;28;20470;-69
2023/02/04 10:16:19;;;;;;;4.00;2.10;;;12.60;96.80;;;;;;5089197;28;20481;-69
2023/02/04 10:18:46;;;;;;;3.57;1.80;;;12.70;99.30;;;;;;5088561;28;20979;-69
2023/02/04 10:21:17;;;;;;;5.33;2.30;;;13.60;97.90;;;;;;5069862;28;20837;-69
2023/02/04 10:23:48;;;;;;;5.70;2.00;;;14.50;97.30;;;;;;5069016;28;20522;-69
2023/02/04 10:26:16;;;;;;;3.10;1.83;;;14.40;97.20;;;;;;5068323;28;21147;-69
2023/02/04 10:28:44;;;;;;;3.10;1.80;;;13.70;97.60;;;;;;5068584;28;20477;-70
2023/02/04 10:31:33;;;;;;;6.70;2.33;;;12.70;98.00;;;;;;5069042;28;20469;-69
2023/02/04 10:34:05;;;;;;;2.20;1.25;;;12.10;99.10;;;;;;5069147;28;20520;-69
2023/02/04 10:36:31;;;;;;;3.42;1.65;;;12.40;99.90;;;;;;5068652;28;20227;-69
2023/02/04 10:39:04;;;;;;;6.47;2.23;;;14.20;98.80;;;;;;5068229;28;20671;-70
2023/02/04 10:41:32;;;;;;;4.50;2.05;;;14.80;97.40;;;;;;5068459;28;20465;-69
2023/02/04 10:44:07;;;;;;;4.50;2.10;;;14.40;98.00;;;;;;5069010;28;20258;-69
2023/02/04 10:46:34;;;;;;;3.95;2.13;;;13.40;98.50;;;;;;5069106;28;20489;-69
2023/02/04 10:49:00;;;;;;;5.40;2.15;;;12.30;99.20;;;;;;5068780;28;20216;-69
2023/02/04 10:51:28;;;;;;;6.93;2.05;;;11.50;99.90;;;;;;5088524;28;20199;-69
2023/02/04 10:56:40;;;;;;;2.42;1.75;;;10.30;99.90;;;;;;5089337;28;20226;-69
2023/02/04 10:59:22;;;;;;;3.50;1.67;;;9.80;99.90;;;;;;5088499;28;20211;-70
2023/02/04 11:01:49;;;;;;;6.22;1.80;;;9.60;99.90;;;;;;5089510;28;20207;-69
2023/02/04 11:04:15;;;;;;;4.53;2.35;;;9.40;99.90;;;;;;5088869;28;20204;-68
2023/02/04 11:06:42;;;;;;;4.15;2.35;;;9.20;99.90;;;;;;5088962;28;20226;-69
2023/02/04 11:09:13;;;;;;;7.10;1.83;;;8.90;99.90;;;;;;5088462;28;20575;-69
2023/02/04 11:11:46;;;;;;;6.10;2.22;;;8.90;99.90;;;;;;5089020;28;20748;-69
2023/02/04 11:14:23;;;;;;;5.30;2.80;;;8.90;99.90;;;;;;5088989;28;20614;-69
2023/02/04 11:16:50;;;;;;;4.22;2.90;;;9.20;99.90;;;;;;5089769;28;20246;-70
2023/02/04 11:19:32;;;;;;;4.60;1.70;;;9.70;99.90;;;;;;5089548;28;20265;-69
2023/02/04 11:22:06;;;;;;;5.13;1.98;;;10.40;99.90;;;;;;5089785;28;20207;-69
2023/02/04 11:24:34;;;;;;;3.20;2.10;;;10.70;99.90;;;;;;5089758;28;20195;-69
2023/02/04 11:27:18;;;;;;;3.75;1.92;;;10.80;99.90;;;;;;5089975;28;20216;-69
2023/02/04 11:29:46;;;;;;;4.63;2.03;;;11.00;99.90;;;;;;5088817;28;20250;-69
2023/02/04 11:32:30;;;;;;;6.80;2.08;;;10.90;99.90;;;;;;5090078;28;20592;-70
2023/02/04 11:35:08;;;;;;;4.65;2.15;;;10.70;99.90;;;;;;5078062;28;20554;-70
2023/02/04 11:37:37;;;;;;;3.13;1.95;;;10.40;99.90;;;;;;5068636;28;20209;-69
2023/02/04 11:40:22;;;;;;;3.72;1.50;;;10.30;99.90;;;;;;5079140;28;20203;-69
2023/02/04 11:42:55;;;;;;;2.65;1.70;;;10.10;99.90;;;;;;5091995;28;20567;-69
2023/02/04 11:45:26;;;;;;;2.47;1.50;;;9.70;99.90;;;;;;5092788;28;20195;-69
2023/02/04 11:47:53;;;;;;;11.40;2.15;;;9.50;99.90;;;;;;5090955;28;20635;-69
2023/02/04 11:50:25;;;;;;;3.45;1.73;;;9.30;99.90;;;;;;5091281;28;20212;-69
2023/02/04 11:52:54;;;;;;;5.88;2.00;;;9.20;99.90;;;;;;5092326;28;20215;-69
2023/02/04 11:55:21;;;;;;;4.07;1.80;;;8.80;99.90;;;;;;5079696;28;20216;-69
2023/02/04 11:57:53;;;;;;;4.82;1.70;;;8.40;99.90;;;;;;5071009;28;20212;-69
2023/02/04 12:00:22;;;;;;;4.60;2.10;;;8.30;99.90;;;;;;5083770;28;20203;-69
2023/02/04 12:02:54;;;;;;;3.08;1.98;;;8.30;99.90;;;;;;5092276;28;20204;-70
2023/02/04 12:05:21;;;;;;;9.40;2.22;;;8.30;99.90;;;;;;5091568;28;20211;-70
2023/02/04 12:07:48;;;;;;;3.92;1.80;;;8.30;99.90;;;;;;5091934;28;20219;-70
2023/02/04 12:10:24;;;;;;;3.90;1.85;;;8.30;99.90;;;;;;5081046;28;20204;-70
2023/02/04 12:12:56;;;;;;;3.85;1.73;;;8.30;99.90;;;;;;5071904;28;20227;-70
2023/02/04 12:15:25;;;;;;;10.48;2.67;;;8.20;99.90;;;;;;5071916;28;20589;-70
2023/02/04 12:18:02;;;;;;;4.38;1.92;;;8.20;99.90;;;;;;5071622;28;20205;-70
2023/02/04 12:20:29;;;;;;;5.22;2.67;;;8.30;99.90;;;;;;5071001;28;20232;-70
2023/02/04 12:22:56;;;;;;;7.68;2.70;;;8.30;99.90;;;;;;5071653;28;20201;-70
2023/02/04 12:25:23;;;;;;;2.35;2.00;;;8.50;99.90;;;;;;5071892;28;20707;-70
2023/02/04 12:27:50;;;;;;;5.85;2.35;;;9.30;99.90;;;;;;5072299;28;20730;-71
2023/02/04 12:30:19;;;;;;;3.17;1.85;;;10.00;99.90;;;;;;5071622;28;20223;-70
2023/02/04 12:32:46;;;;;;;3.70;1.88;;;10.20;99.90;;;;;;5072000;28;20252;-70
2023/02/04 12:35:13;;;;;;;5.20;2.25;;;10.20;99.90;;;;;;5071770;28;20228;-70
2023/02/04 12:37:40;;;;;;;6.15;1.80;;;10.20;99.90;;;;;;5090578;28;20667;-69
2023/02/04 12:40:08;;;;;;;4.95;2.40;;;10.50;99.90;;;;;;5080425;28;20586;-69
2023/02/04 12:42:34;;;;;;;4.45;2.00;;;10.90;99.90;;;;;;5070396;28;20208;-69
2023/02/04 12:45:01;;;;;;;2.17;1.35;;;10.90;99.90;;;;;;5071168;28;20271;-69
2023/02/04 12:47:30;;;;;;;6.63;1.75;;;11.00;99.90;;;;;;5079722;28;20283;-69
2023/02/04 12:49:56;;;;;;;2.85;2.10;;;11.00;99.90;;;;;;5090722;28;20208;-70
2023/02/04 12:52:23;;;;;;;3.38;1.70;;;10.90;99.90;;;;;;5091135;28;20206;-69
2023/02/04 12:54:50;;;;;;;4.50;1.70;;;10.70;99.90;;;;;;5090484;28;20220;-69
2023/02/04 12:57:18;;;;;;;6.93;2.33;;;10.50;99.90;;;;;;5091128;28;20300;-69
2023/02/04 12:59:45;;;;;;;4.50;1.33;;;10.50;99.90;;;;;;5090490;28;20231;-69
2023/02/04 13:02:12;;;;;;;2.58;2.15;;;10.30;99.90;;;;;;5090387;28;20218;-69